Goldvein, Virginia
Current Conditions -  °F | °C
As of 5:55 PM on Tuesday 27 Jan 2015 (Local Time) from KHWY Reporting Station
Broken Clouds Broken Clouds  
Wind Chill: 22°   Ceiling: 6500
Heat Index: 32°   Visibility: 10mi
Dew Point: 25°   Wind: 15mph
Humidity: 76%   Direction: 310°NW
Pressure: 29.88"   Gusts: 24mph
Location:  38.45°N, 77.65°W
Report Text: KHWY 272255Z AUTO 31013G21KT 10SM SCT055 BKN065 00/M04 A2988 RMK AO2 T00001037
Loading
Personal Weather Stations






























Interactive Weather Map New forecast layout! Learn more

10-Day Weather Forecast

Advertisements
Track Severe Weather on mobile